sensor_id;sensor_type;location;lat;lon;timestamp;P1;durP1;ratioP1;P2;durP2;ratioP2
13973;SDS011;7060;43.770;4.008;2023-02-10T00:01:44;11.30;;;6.23;;
13973;SDS011;7060;43.770;4.008;2023-02-10T00:04:14;12.53;;;6.03;;
13973;SDS011;7060;43.770;4.008;2023-02-10T00:06:43;9.73;;;5.70;;
13973;SDS011;7060;43.770;4.008;2023-02-10T00:09:12;10.37;;;6.03;;
13973;SDS011;7060;43.770;4.008;2023-02-10T00:11:41;9.10;;;5.97;;
13973;SDS011;7060;43.770;4.008;2023-02-10T00:14:27;12.23;;;6.73;;
13973;SDS011;7060;43.770;4.008;2023-02-10T00:16:57;13.00;;;6.13;;
13973;SDS011;7060;43.770;4.008;2023-02-10T00:19:28;12.77;;;5.73;;
13973;SDS011;7060;43.770;4.008;2023-02-10T00:22:00;10.40;;;5.00;;
13973;SDS011;7060;43.770;4.008;2023-02-10T00:24:29;10.57;;;6.13;;
13973;SDS011;7060;43.770;4.008;2023-02-10T00:26:58;9.00;;;5.13;;
13973;SDS011;7060;43.770;4.008;2023-02-10T00:29:27;12.60;;;7.20;;
13973;SDS011;7060;43.770;4.008;2023-02-10T00:31:58;14.57;;;5.83;;
13973;SDS011;7060;43.770;4.008;2023-02-10T00:34:28;10.27;;;5.97;;
13973;SDS011;7060;43.770;4.008;2023-02-10T00:36:57;15.53;;;7.97;;
13973;SDS011;7060;43.770;4.008;2023-02-10T00:39:25;15.70;;;7.90;;
13973;SDS011;7060;43.770;4.008;2023-02-10T00:41:54;19.37;;;7.83;;
13973;SDS011;7060;43.770;4.008;2023-02-10T00:44:23;15.90;;;7.50;;
13973;SDS011;7060;43.770;4.008;2023-02-10T00:46:52;11.37;;;6.30;;
13973;SDS011;7060;43.770;4.008;2023-02-10T00:49:20;13.77;;;6.67;;
13973;SDS011;7060;43.770;4.008;2023-02-10T00:51:50;12.93;;;7.37;;
13973;SDS011;7060;43.770;4.008;2023-02-10T00:54:19;13.23;;;6.60;;
13973;SDS011;7060;43.770;4.008;2023-02-10T00:56:48;11.43;;;5.90;;
13973;SDS011;7060;43.770;4.008;2023-02-10T00:59:17;11.57;;;6.00;;
13973;SDS011;7060;43.770;4.008;2023-02-10T01:01:46;12.43;;;5.80;;
13973;SDS011;7060;43.770;4.008;2023-02-10T01:04:15;13.57;;;6.50;;
13973;SDS011;7060;43.770;4.008;2023-02-10T01:06:43;10.87;;;5.50;;
13973;SDS011;7060;43.770;4.008;2023-02-10T01:09:13;10.63;;;5.47;;
13973;SDS011;7060;43.770;4.008;2023-02-10T01:11:42;12.93;;;6.57;;
13973;SDS011;7060;43.770;4.008;2023-02-10T01:14:11;9.70;;;7.03;;
13973;SDS011;7060;43.770;4.008;2023-02-10T01:16:39;13.20;;;5.87;;
13973;SDS011;7060;43.770;4.008;2023-02-10T01:19:08;11.03;;;5.80;;
13973;SDS011;7060;43.770;4.008;2023-02-10T01:21:37;9.07;;;5.63;;
13973;SDS011;7060;43.770;4.008;2023-02-10T01:24:06;9.63;;;5.57;;
13973;SDS011;7060;43.770;4.008;2023-02-10T01:26:36;9.47;;;5.70;;
13973;SDS011;7060;43.770;4.008;2023-02-10T01:29:05;10.67;;;5.57;;
13973;SDS011;7060;43.770;4.008;2023-02-10T01:31:33;9.27;;;5.33;;
13973;SDS011;7060;43.770;4.008;2023-02-10T01:34:03;11.10;;;5.53;;
13973;SDS011;7060;43.770;4.008;2023-02-10T01:36:35;13.40;;;5.53;;
13973;SDS011;7060;43.770;4.008;2023-02-10T01:39:04;9.00;;;5.27;;
13973;SDS011;7060;43.770;4.008;2023-02-10T01:41:33;10.87;;;5.50;;
13973;SDS011;7060;43.770;4.008;2023-02-10T01:44:04;8.10;;;4.83;;
13973;SDS011;7060;43.770;4.008;2023-02-10T01:46:34;11.27;;;4.87;;
13973;SDS011;7060;43.770;4.008;2023-02-10T01:49:04;10.53;;;5.30;;
13973;SDS011;7060;43.770;4.008;2023-02-10T01:51:37;10.63;;;6.00;;
13973;SDS011;7060;43.770;4.008;2023-02-10T01:54:12;8.47;;;4.67;;
13973;SDS011;7060;43.770;4.008;2023-02-10T01:56:44;8.57;;;4.33;;
13973;SDS011;7060;43.770;4.008;2023-02-10T01:59:17;7.37;;;4.93;;
13973;SDS011;7060;43.770;4.008;2023-02-10T02:01:48;9.70;;;4.93;;
13973;SDS011;7060;43.770;4.008;2023-02-10T02:04:18;13.87;;;4.93;;
13973;SDS011;7060;43.770;4.008;2023-02-10T02:06:46;10.07;;;4.90;;
13973;SDS011;7060;43.770;4.008;2023-02-10T02:09:16;11.87;;;5.80;;
13973;SDS011;7060;43.770;4.008;2023-02-10T02:11:46;10.30;;;4.80;;
13973;SDS011;7060;43.770;4.008;2023-02-10T02:14:26;8.67;;;5.00;;
13973;SDS011;7060;43.770;4.008;2023-02-10T02:17:05;9.10;;;5.23;;
13973;SDS011;7060;43.770;4.008;2023-02-10T02:19:52;7.17;;;4.37;;
13973;SDS011;7060;43.770;4.008;2023-02-10T02:23:14;11.87;;;5.33;;
13973;SDS011;7060;43.770;4.008;2023-02-10T02:25:58;8.83;;;4.80;;
13973;SDS011;7060;43.770;4.008;2023-02-10T02:28:42;9.90;;;4.23;;
13973;SDS011;7060;43.770;4.008;2023-02-10T02:34:17;6.07;;;4.10;;
13973;SDS011;7060;43.770;4.008;2023-02-10T02:36:52;8.63;;;4.23;;
13973;SDS011;7060;43.770;4.008;2023-02-10T02:39:24;11.07;;;4.33;;
13973;SDS011;7060;43.770;4.008;2023-02-10T02:41:59;6.53;;;3.90;;
13973;SDS011;7060;43.770;4.008;2023-02-10T02:44:42;8.43;;;3.30;;
13973;SDS011;7060;43.770;4.008;2023-02-10T02:47:15;8.60;;;4.00;;
13973;SDS011;7060;43.770;4.008;2023-02-10T02:49:52;10.10;;;6.30;;
13973;SDS011;7060;43.770;4.008;2023-02-10T02:52:31;14.30;;;7.10;;
13973;SDS011;7060;43.770;4.008;2023-02-10T02:55:12;9.40;;;6.33;;
13973;SDS011;7060;43.770;4.008;2023-02-10T02:57:48;13.10;;;6.17;;
13973;SDS011;7060;43.770;4.008;2023-02-10T03:00:23;10.33;;;5.53;;
13973;SDS011;7060;43.770;4.008;2023-02-10T03:02:56;9.87;;;5.13;;
13973;SDS011;7060;43.770;4.008;2023-02-10T03:05:28;7.90;;;3.50;;
13973;SDS011;7060;43.770;4.008;2023-02-10T03:07:58;7.27;;;3.87;;
13973;SDS011;7060;43.770;4.008;2023-02-10T03:10:27;11.33;;;4.30;;
13973;SDS011;7060;43.770;4.008;2023-02-10T03:12:55;7.90;;;3.67;;
13973;SDS011;7060;43.770;4.008;2023-02-10T03:15:25;6.63;;;4.10;;
13973;SDS011;7060;43.770;4.008;2023-02-10T03:17:54;8.40;;;4.37;;
13973;SDS011;7060;43.770;4.008;2023-02-10T03:20:24;10.93;;;4.07;;
13973;SDS011;7060;43.770;4.008;2023-02-10T03:22:52;8.90;;;3.87;;
13973;SDS011;7060;43.770;4.008;2023-02-10T03:25:21;7.07;;;4.07;;
13973;SDS011;7060;43.770;4.008;2023-02-10T03:27:49;8.30;;;3.37;;
13973;SDS011;7060;43.770;4.008;2023-02-10T03:30:18;7.70;;;3.50;;
13973;SDS011;7060;43.770;4.008;2023-02-10T03:32:46;5.73;;;3.37;;
13973;SDS011;7060;43.770;4.008;2023-02-10T03:35:15;7.50;;;3.73;;
13973;SDS011;7060;43.770;4.008;2023-02-10T03:37:45;6.90;;;3.27;;
13973;SDS011;7060;43.770;4.008;2023-02-10T03:40:14;5.43;;;2.93;;
13973;SDS011;7060;43.770;4.008;2023-02-10T03:42:43;7.00;;;2.73;;
13973;SDS011;7060;43.770;4.008;2023-02-10T03:45:11;7.50;;;3.00;;
13973;SDS011;7060;43.770;4.008;2023-02-10T03:47:40;5.70;;;3.07;;
13973;SDS011;7060;43.770;4.008;2023-02-10T03:50:08;5.37;;;2.20;;
13973;SDS011;7060;43.770;4.008;2023-02-10T03:52:37;7.77;;;3.83;;
13973;SDS011;7060;43.770;4.008;2023-02-10T03:55:07;6.23;;;3.23;;
13973;SDS011;7060;43.770;4.008;2023-02-10T03:57:35;5.27;;;2.43;;
13973;SDS011;7060;43.770;4.008;2023-02-10T04:00:04;5.83;;;2.80;;
13973;SDS011;7060;43.770;4.008;2023-02-10T04:02:38;8.73;;;4.10;;
13973;SDS011;7060;43.770;4.008;2023-02-10T04:05:07;7.80;;;4.73;;
13973;SDS011;7060;43.770;4.008;2023-02-10T04:07:35;8.53;;;3.90;;
13973;SDS011;7060;43.770;4.008;2023-02-10T04:10:04;6.30;;;3.83;;
13973;SDS011;7060;43.770;4.008;2023-02-10T04:12:35;7.17;;;3.60;;
13973;SDS011;7060;43.770;4.008;2023-02-10T04:15:04;7.83;;;3.50;;
13973;SDS011;7060;43.770;4.008;2023-02-10T04:17:34;6.17;;;3.83;;
13973;SDS011;7060;43.770;4.008;2023-02-10T04:20:03;6.43;;;3.70;;
13973;SDS011;7060;43.770;4.008;2023-02-10T04:22:32;8.67;;;3.73;;
13973;SDS011;7060;43.770;4.008;2023-02-10T04:25:00;6.07;;;4.03;;
13973;SDS011;7060;43.770;4.008;2023-02-10T04:27:31;6.80;;;3.90;;
13973;SDS011;7060;43.770;4.008;2023-02-10T04:29:59;5.57;;;3.73;;
13973;SDS011;7060;43.770;4.008;2023-02-10T04:32:28;7.30;;;3.33;;
13973;SDS011;7060;43.770;4.008;2023-02-10T04:34:57;6.37;;;3.13;;
13973;SDS011;7060;43.770;4.008;2023-02-10T04:37:26;6.10;;;3.50;;
13973;SDS011;7060;43.770;4.008;2023-02-10T04:39:54;8.67;;;3.80;;
13973;SDS011;7060;43.770;4.008;2023-02-10T04:42:23;6.10;;;3.43;;
13973;SDS011;7060;43.770;4.008;2023-02-10T04:44:58;6.77;;;3.87;;
13973;SDS011;7060;43.770;4.008;2023-02-10T04:47:27;6.93;;;3.47;;
13973;SDS011;7060;43.770;4.008;2023-02-10T04:49:56;8.53;;;3.83;;
13973;SDS011;7060;43.770;4.008;2023-02-10T04:52:25;6.37;;;3.50;;
13973;SDS011;7060;43.770;4.008;2023-02-10T04:54:53;7.57;;;4.03;;
13973;SDS011;7060;43.770;4.008;2023-02-10T04:57:22;5.90;;;3.60;;
13973;SDS011;7060;43.770;4.008;2023-02-10T04:59:51;6.60;;;3.37;;
13973;SDS011;7060;43.770;4.008;2023-02-10T05:02:21;8.60;;;4.30;;
13973;SDS011;7060;43.770;4.008;2023-02-10T05:04:49;13.10;;;5.30;;
13973;SDS011;7060;43.770;4.008;2023-02-10T05:07:18;9.10;;;4.80;;
13973;SDS011;7060;43.770;4.008;2023-02-10T05:09:48;9.07;;;5.53;;
13973;SDS011;7060;43.770;4.008;2023-02-10T05:12:16;7.97;;;4.20;;
13973;SDS011;7060;43.770;4.008;2023-02-10T05:14:46;6.97;;;3.63;;
13973;SDS011;7060;43.770;4.008;2023-02-10T05:17:14;8.77;;;4.17;;
13973;SDS011;7060;43.770;4.008;2023-02-10T05:19:44;6.70;;;3.40;;
13973;SDS011;7060;43.770;4.008;2023-02-10T05:22:13;7.13;;;2.83;;
13973;SDS011;7060;43.770;4.008;2023-02-10T05:24:41;7.77;;;3.63;;
13973;SDS011;7060;43.770;4.008;2023-02-10T05:27:10;11.53;;;3.73;;
13973;SDS011;7060;43.770;4.008;2023-02-10T05:29:38;9.23;;;3.70;;
13973;SDS011;7060;43.770;4.008;2023-02-10T05:32:07;7.50;;;3.37;;
13973;SDS011;7060;43.770;4.008;2023-02-10T05:34:36;6.30;;;3.90;;
13973;SDS011;7060;43.770;4.008;2023-02-10T05:37:06;6.57;;;3.00;;
13973;SDS011;7060;43.770;4.008;2023-02-10T05:39:35;11.13;;;4.13;;
13973;SDS011;7060;43.770;4.008;2023-02-10T05:42:07;5.13;;;2.83;;
13973;SDS011;7060;43.770;4.008;2023-02-10T05:44:36;7.33;;;3.40;;
13973;SDS011;7060;43.770;4.008;2023-02-10T05:47:05;9.57;;;4.13;;
13973;SDS011;7060;43.770;4.008;2023-02-10T05:49:33;7.03;;;3.77;;
13973;SDS011;7060;43.770;4.008;2023-02-10T05:52:02;9.53;;;4.03;;
13973;SDS011;7060;43.770;4.008;2023-02-10T05:54:32;6.53;;;3.10;;
13973;SDS011;7060;43.770;4.008;2023-02-10T05:57:02;5.87;;;3.20;;
13973;SDS011;7060;43.770;4.008;2023-02-10T05:59:30;5.07;;;2.93;;
13973;SDS011;7060;43.770;4.008;2023-02-10T06:01:59;7.00;;;2.77;;
13973;SDS011;7060;43.770;4.008;2023-02-10T06:04:27;5.87;;;3.03;;
13973;SDS011;7060;43.770;4.008;2023-02-10T06:06:56;6.47;;;2.57;;
13973;SDS011;7060;43.770;4.008;2023-02-10T06:09:24;6.40;;;3.17;;
13973;SDS011;7060;43.770;4.008;2023-02-10T06:11:55;6.33;;;3.20;;
13973;SDS011;7060;43.770;4.008;2023-02-10T06:14:24;7.97;;;3.23;;
13973;SDS011;7060;43.770;4.008;2023-02-10T06:16:53;6.13;;;3.50;;
13973;SDS011;7060;43.770;4.008;2023-02-10T06:19:22;6.77;;;2.93;;
13973;SDS011;7060;43.770;4.008;2023-02-10T06:21:50;7.97;;;3.53;;
13973;SDS011;7060;43.770;4.008;2023-02-10T06:24:19;5.20;;;3.10;;
13973;SDS011;7060;43.770;4.008;2023-02-10T06:26:47;9.13;;;3.40;;
13973;SDS011;7060;43.770;4.008;2023-02-10T06:29:17;7.30;;;4.20;;
13973;SDS011;7060;43.770;4.008;2023-02-10T06:31:47;12.00;;;3.80;;
13973;SDS011;7060;43.770;4.008;2023-02-10T06:34:16;8.67;;;3.93;;
13973;SDS011;7060;43.770;4.008;2023-02-10T06:36:45;15.87;;;4.03;;
13973;SDS011;7060;43.770;4.008;2023-02-10T06:39:15;6.93;;;3.63;;
13973;SDS011;7060;43.770;4.008;2023-02-10T06:41:43;6.33;;;3.37;;
13973;SDS011;7060;43.770;4.008;2023-02-10T06:44:12;7.67;;;3.00;;
13973;SDS011;7060;43.770;4.008;2023-02-10T06:46:42;5.50;;;3.10;;
13973;SDS011;7060;43.770;4.008;2023-02-10T06:49:11;6.87;;;3.10;;
13973;SDS011;7060;43.770;4.008;2023-02-10T06:51:39;5.03;;;3.33;;
13973;SDS011;7060;43.770;4.008;2023-02-10T06:54:08;6.13;;;3.13;;
13973;SDS011;7060;43.770;4.008;2023-02-10T06:56:36;6.23;;;3.50;;
13973;SDS011;7060;43.770;4.008;2023-02-10T06:59:06;5.50;;;3.50;;
13973;SDS011;7060;43.770;4.008;2023-02-10T07:01:34;7.60;;;3.20;;
13973;SDS011;7060;43.770;4.008;2023-02-10T07:04:06;11.50;;;3.17;;
13973;SDS011;7060;43.770;4.008;2023-02-10T07:06:34;7.73;;;2.67;;
13973;SDS011;7060;43.770;4.008;2023-02-10T07:09:03;8.30;;;3.70;;
13973;SDS011;7060;43.770;4.008;2023-02-10T07:11:32;11.23;;;3.13;;
13973;SDS011;7060;43.770;4.008;2023-02-10T07:14:01;6.17;;;3.00;;
13973;SDS011;7060;43.770;4.008;2023-02-10T07:16:29;7.47;;;2.73;;
13973;SDS011;7060;43.770;4.008;2023-02-10T07:18:58;6.10;;;2.80;;
13973;SDS011;7060;43.770;4.008;2023-02-10T07:21:29;5.53;;;3.00;;
13973;SDS011;7060;43.770;4.008;2023-02-10T07:23:57;6.77;;;2.80;;
13973;SDS011;7060;43.770;4.008;2023-02-10T07:26:27;4.93;;;2.60;;
13973;SDS011;7060;43.770;4.008;2023-02-10T07:28:57;3.90;;;2.70;;
13973;SDS011;7060;43.770;4.008;2023-02-10T07:31:26;4.30;;;2.57;;
13973;SDS011;7060;43.770;4.008;2023-02-10T07:33:54;5.63;;;3.47;;
13973;SDS011;7060;43.770;4.008;2023-02-10T07:36:23;6.63;;;3.10;;
13973;SDS011;7060;43.770;4.008;2023-02-10T07:38:54;4.73;;;2.70;;
13973;SDS011;7060;43.770;4.008;2023-02-10T07:41:22;9.80;;;2.83;;
13973;SDS011;7060;43.770;4.008;2023-02-10T07:43:51;4.57;;;2.70;;
13973;SDS011;7060;43.770;4.008;2023-02-10T07:46:20;6.00;;;2.80;;
13973;SDS011;7060;43.770;4.008;2023-02-10T07:48:49;5.50;;;3.07;;
13973;SDS011;7060;43.770;4.008;2023-02-10T07:51:17;7.17;;;3.20;;
13973;SDS011;7060;43.770;4.008;2023-02-10T07:53:46;6.57;;;2.80;;
13973;SDS011;7060;43.770;4.008;2023-02-10T07:56:16;6.50;;;2.83;;
13973;SDS011;7060;43.770;4.008;2023-02-10T07:58:44;6.50;;;3.17;;
13973;SDS011;7060;43.770;4.008;2023-02-10T08:01:13;11.67;;;4.63;;
13973;SDS011;7060;43.770;4.008;2023-02-10T08:03:42;11.20;;;5.43;;
13973;SDS011;7060;43.770;4.008;2023-02-10T08:06:10;15.77;;;8.30;;
13973;SDS011;7060;43.770;4.008;2023-02-10T08:08:39;13.43;;;7.57;;
13973;SDS011;7060;43.770;4.008;2023-02-10T08:11:07;19.37;;;8.20;;
13973;SDS011;7060;43.770;4.008;2023-02-10T08:13:37;17.57;;;8.23;;
13973;SDS011;7060;43.770;4.008;2023-02-10T08:16:06;12.70;;;7.63;;
13973;SDS011;7060;43.770;4.008;2023-02-10T08:18:38;11.23;;;7.37;;
13973;SDS011;7060;43.770;4.008;2023-02-10T08:21:06;13.17;;;7.40;;
13973;SDS011;7060;43.770;4.008;2023-02-10T08:23:35;14.93;;;6.57;;
13973;SDS011;7060;43.770;4.008;2023-02-10T08:26:04;10.77;;;7.07;;
13973;SDS011;7060;43.770;4.008;2023-02-10T08:28:35;10.20;;;7.20;;
13973;SDS011;7060;43.770;4.008;2023-02-10T08:31:06;16.47;;;9.07;;
13973;SDS011;7060;43.770;4.008;2023-02-10T08:33:36;9.67;;;6.93;;
13973;SDS011;7060;43.770;4.008;2023-02-10T08:36:13;8.80;;;5.53;;
13973;SDS011;7060;43.770;4.008;2023-02-10T08:38:43;8.47;;;5.27;;
13973;SDS011;7060;43.770;4.008;2023-02-10T08:41:12;8.57;;;5.27;;
13973;SDS011;7060;43.770;4.008;2023-02-10T08:43:41;8.53;;;4.70;;
13973;SDS011;7060;43.770;4.008;2023-02-10T08:46:11;9.77;;;5.20;;
13973;SDS011;7060;43.770;4.008;2023-02-10T08:48:40;9.57;;;4.53;;
13973;SDS011;7060;43.770;4.008;2023-02-10T08:51:09;6.90;;;4.30;;
13973;SDS011;7060;43.770;4.008;2023-02-10T08:53:39;6.70;;;4.63;;
13973;SDS011;7060;43.770;4.008;2023-02-10T08:56:08;8.70;;;4.80;;
13973;SDS011;7060;43.770;4.008;2023-02-10T08:58:40;6.43;;;4.73;;
13973;SDS011;7060;43.770;4.008;2023-02-10T09:01:09;8.07;;;4.20;;
13973;SDS011;7060;43.770;4.008;2023-02-10T09:03:42;6.97;;;4.20;;
13973;SDS011;7060;43.770;4.008;2023-02-10T09:06:12;7.23;;;4.23;;
13973;SDS011;7060;43.770;4.008;2023-02-10T09:08:44;7.93;;;4.47;;
13973;SDS011;7060;43.770;4.008;2023-02-10T09:11:14;7.63;;;3.80;;
13973;SDS011;7060;43.770;4.008;2023-02-10T09:13:42;5.43;;;3.17;;
13973;SDS011;7060;43.770;4.008;2023-02-10T09:16:13;6.07;;;2.90;;
13973;SDS011;7060;43.770;4.008;2023-02-10T09:18:41;5.07;;;2.57;;
13973;SDS011;7060;43.770;4.008;2023-02-10T09:21:10;8.47;;;3.87;;
13973;SDS011;7060;43.770;4.008;2023-02-10T09:23:39;5.00;;;2.10;;
13973;SDS011;7060;43.770;4.008;2023-02-10T09:26:10;7.93;;;3.07;;
13973;SDS011;7060;43.770;4.008;2023-02-10T09:28:38;7.37;;;2.87;;
13973;SDS011;7060;43.770;4.008;2023-02-10T09:31:07;9.43;;;3.13;;
13973;SDS011;7060;43.770;4.008;2023-02-10T09:33:39;4.33;;;2.40;;
13973;SDS011;7060;43.770;4.008;2023-02-10T09:36:08;6.03;;;2.53;;
13973;SDS011;7060;43.770;4.008;2023-02-10T09:38:40;5.53;;;2.17;;
13973;SDS011;7060;43.770;4.008;2023-02-10T09:41:18;4.83;;;2.40;;
13973;SDS011;7060;43.770;4.008;2023-02-10T09:44:04;5.53;;;2.50;;
13973;SDS011;7060;43.770;4.008;2023-02-10T09:46:46;4.97;;;2.33;;
13973;SDS011;7060;43.770;4.008;2023-02-10T09:49:26;6.33;;;3.23;;
13973;SDS011;7060;43.770;4.008;2023-02-10T09:52:10;4.73;;;2.47;;
13973;SDS011;7060;43.770;4.008;2023-02-10T09:54:45;5.77;;;2.60;;
13973;SDS011;7060;43.770;4.008;2023-02-10T09:57:14;5.17;;;2.40;;
13973;SDS011;7060;43.770;4.008;2023-02-10T09:59:47;6.53;;;2.50;;
13973;SDS011;7060;43.770;4.008;2023-02-10T10:02:20;6.00;;;2.87;;
13973;SDS011;7060;43.770;4.008;2023-02-10T10:04:57;6.93;;;3.20;;
13973;SDS011;7060;43.770;4.008;2023-02-10T10:07:28;6.90;;;2.93;;
13973;SDS011;7060;43.770;4.008;2023-02-10T10:10:04;6.17;;;2.70;;
13973;SDS011;7060;43.770;4.008;2023-02-10T10:12:40;7.07;;;2.83;;
13973;SDS011;7060;43.770;4.008;2023-02-10T10:15:13;4.87;;;2.97;;
13973;SDS011;7060;43.770;4.008;2023-02-10T10:17:51;3.73;;;2.17;;
13973;SDS011;7060;43.770;4.008;2023-02-10T10:20:35;5.03;;;2.97;;
13973;SDS011;7060;43.770;4.008;2023-02-10T10:23:15;4.87;;;2.87;;
13973;SDS011;7060;43.770;4.008;2023-02-10T10:26:03;5.50;;;3.00;;
13973;SDS011;7060;43.770;4.008;2023-02-10T10:28:59;6.33;;;2.60;;
13973;SDS011;7060;43.770;4.008;2023-02-10T10:31:37;8.17;;;2.23;;
13973;SDS011;7060;43.770;4.008;2023-02-10T10:34:11;4.67;;;2.60;;
13973;SDS011;7060;43.770;4.008;2023-02-10T10:36:46;3.70;;;1.93;;
13973;SDS011;7060;43.770;4.008;2023-02-10T10:39:17;4.03;;;1.93;;
13973;SDS011;7060;43.770;4.008;2023-02-10T10:41:53;3.70;;;1.97;;
13973;SDS011;7060;43.770;4.008;2023-02-10T10:44:23;3.50;;;2.10;;
13973;SDS011;7060;43.770;4.008;2023-02-10T10:47:04;4.90;;;1.90;;
13973;SDS011;7060;43.770;4.008;2023-02-10T10:49:39;6.90;;;2.00;;
13973;SDS011;7060;43.770;4.008;2023-02-10T10:52:24;4.23;;;1.70;;
13973;SDS011;7060;43.770;4.008;2023-02-10T10:54:55;2.90;;;1.50;;
13973;SDS011;7060;43.770;4.008;2023-02-10T10:57:25;2.47;;;1.50;;
13973;SDS011;7060;43.770;4.008;2023-02-10T10:59:54;3.50;;;1.50;;
13973;SDS011;7060;43.770;4.008;2023-02-10T11:02:27;6.03;;;2.00;;
13973;SDS011;7060;43.770;4.008;2023-02-10T11:05:00;2.60;;;1.43;;
13973;SDS011;7060;43.770;4.008;2023-02-10T11:07:32;4.57;;;1.87;;
13973;SDS011;7060;43.770;4.008;2023-02-10T11:10:01;4.43;;;2.10;;
13973;SDS011;7060;43.770;4.008;2023-02-10T11:12:32;3.77;;;2.00;;
13973;SDS011;7060;43.770;4.008;2023-02-10T11:15:15;3.90;;;1.90;;
13973;SDS011;7060;43.770;4.008;2023-02-10T11:17:57;4.43;;;1.70;;
13973;SDS011;7060;43.770;4.008;2023-02-10T11:20:29;2.23;;;1.40;;
13973;SDS011;7060;43.770;4.008;2023-02-10T11:23:01;3.60;;;2.00;;
13973;SDS011;7060;43.770;4.008;2023-02-10T11:25:35;3.27;;;1.90;;
13973;SDS011;7060;43.770;4.008;2023-02-10T11:28:05;7.07;;;2.10;;
13973;SDS011;7060;43.770;4.008;2023-02-10T11:30:36;2.40;;;1.60;;
13973;SDS011;7060;43.770;4.008;2023-02-10T11:33:15;3.87;;;1.93;;
13973;SDS011;7060;43.770;4.008;2023-02-10T11:35:48;2.23;;;1.47;;
13973;SDS011;7060;43.770;4.008;2023-02-10T11:38:21;5.30;;;1.97;;
13973;SDS011;7060;43.770;4.008;2023-02-10T11:40:54;4.10;;;1.87;;
13973;SDS011;7060;43.770;4.008;2023-02-10T11:43:27;3.57;;;2.13;;
13973;SDS011;7060;43.770;4.008;2023-02-10T11:45:58;3.00;;;1.70;;
13973;SDS011;7060;43.770;4.008;2023-02-10T11:48:29;3.33;;;1.77;;
13973;SDS011;7060;43.770;4.008;2023-02-10T11:51:01;2.17;;;1.50;;
13973;SDS011;7060;43.770;4.008;2023-02-10T11:53:37;5.67;;;1.60;;
13973;SDS011;7060;43.770;4.008;2023-02-10T11:56:09;4.37;;;2.10;;
13973;SDS011;7060;43.770;4.008;2023-02-10T11:58:47;5.57;;;1.60;;
13973;SDS011;7060;43.770;4.008;2023-02-10T12:01:32;4.00;;;1.67;;
13973;SDS011;7060;43.770;4.008;2023-02-10T12:04:11;2.90;;;1.60;;
13973;SDS011;7060;43.770;4.008;2023-02-10T12:06:52;2.57;;;1.53;;
13973;SDS011;7060;43.770;4.008;2023-02-10T12:09:31;3.30;;;1.93;;
13973;SDS011;7060;43.770;4.008;2023-02-10T12:12:11;2.90;;;1.60;;
13973;SDS011;7060;43.770;4.008;2023-02-10T12:14:59;3.93;;;2.03;;
13973;SDS011;7060;43.770;4.008;2023-02-10T12:17:37;3.73;;;1.70;;
13973;SDS011;7060;43.770;4.008;2023-02-10T12:20:27;5.33;;;2.00;;
13973;SDS011;7060;43.770;4.008;2023-02-10T12:26:09;3.30;;;1.67;;
13973;SDS011;7060;43.770;4.008;2023-02-10T12:28:44;3.33;;;2.00;;
13973;SDS011;7060;43.770;4.008;2023-02-10T12:31:28;4.47;;;1.90;;
13973;SDS011;7060;43.770;4.008;2023-02-10T12:34:14;3.73;;;2.10;;
13973;SDS011;7060;43.770;4.008;2023-02-10T12:36:56;4.47;;;1.87;;
13973;SDS011;7060;43.770;4.008;2023-02-10T12:39:32;2.97;;;1.87;;
13973;SDS011;7060;43.770;4.008;2023-02-10T12:42:13;2.77;;;1.87;;
13973;SDS011;7060;43.770;4.008;2023-02-10T12:44:56;2.67;;;1.90;;
13973;SDS011;7060;43.770;4.008;2023-02-10T12:47:35;2.97;;;1.90;;
13973;SDS011;7060;43.770;4.008;2023-02-10T12:50:22;2.40;;;1.30;;
13973;SDS011;7060;43.770;4.008;2023-02-10T12:53:02;2.50;;;1.27;;
13973;SDS011;7060;43.770;4.008;2023-02-10T12:55:39;1.90;;;1.30;;
13973;SDS011;7060;43.770;4.008;2023-02-10T12:58:14;3.03;;;1.60;;
13973;SDS011;7060;43.770;4.008;2023-02-10T13:00:46;2.87;;;1.33;;
13973;SDS011;7060;43.770;4.008;2023-02-10T13:03:21;3.20;;;1.30;;
13973;SDS011;7060;43.770;4.008;2023-02-10T13:05:57;2.20;;;1.60;;
13973;SDS011;7060;43.770;4.008;2023-02-10T13:08:32;3.73;;;1.40;;
13973;SDS011;7060;43.770;4.008;2023-02-10T13:11:07;2.20;;;1.60;;
13973;SDS011;7060;43.770;4.008;2023-02-10T13:13:41;2.87;;;1.77;;
13973;SDS011;7060;43.770;4.008;2023-02-10T13:16:10;3.50;;;1.50;;
13973;SDS011;7060;43.770;4.008;2023-02-10T13:18:43;3.30;;;1.53;;
13973;SDS011;7060;43.770;4.008;2023-02-10T13:21:19;3.27;;;2.13;;
13973;SDS011;7060;43.770;4.008;2023-02-10T13:23:58;2.80;;;2.13;;
13973;SDS011;7060;43.770;4.008;2023-02-10T13:26:37;2.93;;;1.63;;
13973;SDS011;7060;43.770;4.008;2023-02-10T13:29:25;5.03;;;2.13;;
13973;SDS011;7060;43.770;4.008;2023-02-10T13:32:16;4.43;;;2.47;;
13973;SDS011;7060;43.770;4.008;2023-02-10T13:34:54;4.47;;;2.87;;
13973;SDS011;7060;43.770;4.008;2023-02-10T13:37:27;3.87;;;1.87;;
13973;SDS011;7060;43.770;4.008;2023-02-10T13:40:03;4.00;;;2.47;;
13973;SDS011;7060;43.770;4.008;2023-02-10T13:42:46;4.57;;;2.60;;
13973;SDS011;7060;43.770;4.008;2023-02-10T13:45:21;5.13;;;2.70;;
13973;SDS011;7060;43.770;4.008;2023-02-10T13:47:52;4.13;;;2.90;;
13973;SDS011;7060;43.770;4.008;2023-02-10T13:50:27;6.93;;;2.90;;
13973;SDS011;7060;43.770;4.008;2023-02-10T13:53:01;5.03;;;3.67;;
13973;SDS011;7060;43.770;4.008;2023-02-10T13:55:40;4.47;;;3.33;;
13973;SDS011;7060;43.770;4.008;2023-02-10T13:58:23;8.80;;;3.40;;
13973;SDS011;7060;43.770;4.008;2023-02-10T14:00:56;5.47;;;3.03;;
13973;SDS011;7060;43.770;4.008;2023-02-10T14:03:26;5.23;;;3.40;;
13973;SDS011;7060;43.770;4.008;2023-02-10T14:05:57;5.30;;;3.20;;
13973;SDS011;7060;43.770;4.008;2023-02-10T14:08:37;5.97;;;3.43;;
13973;SDS011;7060;43.770;4.008;2023-02-10T14:11:27;4.80;;;2.60;;
13973;SDS011;7060;43.770;4.008;2023-02-10T14:14:16;5.60;;;2.90;;
13973;SDS011;7060;43.770;4.008;2023-02-10T14:16:50;6.63;;;3.20;;
13973;SDS011;7060;43.770;4.008;2023-02-10T14:19:20;7.37;;;3.53;;
13973;SDS011;7060;43.770;4.008;2023-02-10T14:21:51;4.83;;;2.43;;
13973;SDS011;7060;43.770;4.008;2023-02-10T14:24:23;6.90;;;2.20;;
13973;SDS011;7060;43.770;4.008;2023-02-10T14:27:11;4.70;;;2.10;;
13973;SDS011;7060;43.770;4.008;2023-02-10T14:29:43;4.43;;;2.23;;
13973;SDS011;7060;43.770;4.008;2023-02-10T14:32:17;6.07;;;2.70;;
13973;SDS011;7060;43.770;4.008;2023-02-10T14:34:53;3.53;;;1.90;;
13973;SDS011;7060;43.770;4.008;2023-02-10T14:37:23;3.00;;;1.80;;
13973;SDS011;7060;43.770;4.008;2023-02-10T14:39:54;3.73;;;1.80;;
13973;SDS011;7060;43.770;4.008;2023-02-10T14:42:24;3.33;;;2.90;;
13973;SDS011;7060;43.770;4.008;2023-02-10T14:44:55;4.73;;;3.20;;
13973;SDS011;7060;43.770;4.008;2023-02-10T14:47:27;4.27;;;2.90;;
13973;SDS011;7060;43.770;4.008;2023-02-10T14:49:59;6.20;;;2.77;;
13973;SDS011;7060;43.770;4.008;2023-02-10T14:52:29;7.90;;;2.73;;
13973;SDS011;7060;43.770;4.008;2023-02-10T14:55:21;3.53;;;2.60;;
13973;SDS011;7060;43.770;4.008;2023-02-10T14:57:55;3.70;;;2.37;;
13973;SDS011;7060;43.770;4.008;2023-02-10T15:00:25;3.20;;;2.10;;
13973;SDS011;7060;43.770;4.008;2023-02-10T15:02:58;4.93;;;2.97;;
13973;SDS011;7060;43.770;4.008;2023-02-10T15:05:29;6.37;;;4.37;;
13973;SDS011;7060;43.770;4.008;2023-02-10T15:08:02;8.60;;;6.87;;
13973;SDS011;7060;43.770;4.008;2023-02-10T15:10:35;8.07;;;5.67;;
13973;SDS011;7060;43.770;4.008;2023-02-10T15:13:06;5.80;;;4.90;;
13973;SDS011;7060;43.770;4.008;2023-02-10T15:15:38;7.37;;;5.13;;
13973;SDS011;7060;43.770;4.008;2023-02-10T15:18:12;5.03;;;2.50;;
13973;SDS011;7060;43.770;4.008;2023-02-10T15:20:50;4.17;;;2.70;;
13973;SDS011;7060;43.770;4.008;2023-02-10T15:23:19;3.83;;;2.50;;
13973;SDS011;7060;43.770;4.008;2023-02-10T15:25:59;4.57;;;2.90;;
13973;SDS011;7060;43.770;4.008;2023-02-10T15:28:35;5.20;;;2.53;;
13973;SDS011;7060;43.770;4.008;2023-02-10T15:31:05;7.93;;;4.53;;
13973;SDS011;7060;43.770;4.008;2023-02-10T15:33:51;9.40;;;6.13;;
13973;SDS011;7060;43.770;4.008;2023-02-10T15:36:22;4.73;;;3.73;;